Share

Willard, MT (59354)

Baker Municipal (KBHK) Elev 2972 ft | 46.35 °N, 104.26 °W | Change Station

Current weather conditions updated 44 minutes ago

Clear
Clear
61 °F
Feels Like 61 °F
N
14
Wind Variable Wind from West
Gusts 25 mph
Sunrise 6:04 AM
Sunset 7:50 PM
Moon Waning Gibbous

Tomorrow is forecast to be nearly the same temperature as today.

Pressure 29.97 in
Visibility 10.0 miles
Clouds Clear
Dew Point 20 °F
Humidity 21%
Rainfall 0.00 in
Snow Depth Not available.
UV 3 out of 16
Pollen 10.30 out of 12
Air Quality Not available.
Flu Activity Sporadic
METAR KBHK 192251Z AUTO 28012G22KT 10SM CLR 16/M07 A2996 RMK AO2 SLP147 T01611067

More Conditions Fewer Conditions

Pressure 29.97 in
Visibility 10.0 miles
Clouds Clear
Dew Point 20 °F
Humidity 21%
Rainfall 0.00 in
Snow Depth Not available.
UV 3 out of 16
Pollen 10.30 out of 12
Air Quality Not available.
Flu Activity Sporadic
METAR KBHK 192251Z AUTO 28012G22KT 10SM CLR 16/M07 A2996 RMK AO2 SLP147 T01611067

More Conditions Fewer Conditions

10-Day Weather Forecast

Almanac

Astronomy

Apr. 19, 2014 Rise Set
Actual Time 6:04 AM MDT 7:50 PM MDT
Civil Twilight 5:32 AM MDT 8:22 PM MDT
Nautical Twilight 4:53 AM MDT 9:01 PM MDT
Astronomical Twilight 4:11 AM MDT 9:43 PM MDT
Moon No Moon Rise 9:17 AM MDT
Length of Visible Light 14h 49m
Length of Day
13h 46m
Tomorrow will be 3m 5s longer.
Waning Gibbous, 76% of the Moon is Illuminated
Today
Waning Gibbous
Apr 22
Last Quarter
Apr 29
New
May 6
First Quarter
May 14
Full

Today's Extremes

State Highs State Lows

Community

  • New Day
    New Day
  • Happy Easter!
    Happy Easter!
  • poppy bloom near Mazar-e-Sharif
    poppy bloom near Mazar-e-Sharif
  • Happy Easter WU friends!!!!
    Happy Easter WU friends!!!!
  • Skirting the Horizon
    Skirting the Horizon

WunderPhotos

Upload Photos

1,702,965 photos uploaded!

WunderBlogs® & News

Nearby

Snow Depth

Station Depth Elevation
Crystal Lake 55 in 6050 ft
Cole Creek 74 in 7850 ft
Burnt Mountain 26 in 5880 ft
White Mill 95 in 8700 ft
Placer Basin 82 in 8830 ft

Coastal Water Temperatures

Place Temperature
No Stations Reporting

Earthquake Activity

City Distance Mag. Time & Date
No recent earthquake activity has been reported nearby.
Minimum magnitude displayed is 2.5.

Nearby Weather Stations

Station Location Temp. Dew Point Humidity Wind Precip. Elev Updated Type
NonFedAWOS EKALAKA AIRPORT , Ekalaka, MT 61 °F 18 °F 18% SW  at  8 mph 0.00 in / hr 3502 ft 4:55 PM MDT MADIS
RAWS EKALAKA MT, Ekalaka, MT 61 °F 20 °F 20% WNW  at  7 mph 0.00 in / hr 3996 ft 4:54 PM MDT MADIS

Show More Stations Show Fewer Stations

What do you think?

We're not finished. Please let us know what you like, what you don't like, and what you are still missing.